Sandpoint, ID (83864)

6:00 PM PDT on July 24, 2016 (GMT -0700)
Ponder Point Sandpoint ID | | Change Station

Elev 2110 ft 48.31 °N, 116.51 °W | Updated 12 minutes ago

Clear
Clear
84.0 °F
Feels Like 84 °F
N
0.0
Wind Variable Wind from North

Today
High -- | Low -- °F
--% Chance of Precip.
Yesterday
High -- | Low -- °F
Precip. -- in
Pressure 30.01 in
Visibility 10.0 miles
Clouds Clear
Heat Index 84 °F
Dew Point 59 °F
Humidity 42%
Rainfall Not available.
Snow Depth Not available.
5:12 AM 8:32 PM
Waning Gibbous, 71% visible
METAR KSZT 250055Z AUTO 00000KT 10SM CLR 26/10 A3001 RMK AO2
Pressure 30.01 in
Visibility 10.0 miles
Clouds Clear
Heat Index 84 °F
Dew Point 59 °F
Humidity 42%
Rainfall Not available.
Snow Depth Not available.
5:12 AM 8:32 PM
Waning Gibbous, 71% visible
METAR KSZT 250055Z AUTO 00000KT 10SM CLR 26/10 A3001 RMK AO2

10-Day Weather Forecast

Almanac

Astronomy

Jul. 24, 2016 Rise Set
Actual Time
Civil Twilight
Nautical Twilight
Astronomical Twilight
Moon
Length of Visible Light
Length of Day
Tomorrow will be .
, % of the Moon is Illuminated

Today's Extremes

State Highs State Lows

Community

WunderPhotos

Upload Photos

1,927,218 photos uploaded!

WunderBlog® & News

Nearby

Air Quality

  Air Quality AQ Index Pollutant
Not available.

Snow Depth

Station Depth Elevation

Earthquake Activity

City Distance Mag. Time & Date
Minimum magnitude displayed is 2.5.

Coastal Water Temperatures

Place Temperature

Stations

Nearby Weather Stations

Station Location Temp. Windchill Dew Point Humidity Wind Precip. Elev Updated Type
                   

Watches & Warnings

There are currently no watches in effect.